sensor_id;sensor_type;location;lat;lon;timestamp;pressure;altitude;pressure_sealevel;temperature;humidity
31162;BME280;17796;49.296;-117.656;2023-03-01T00:02:30;95000;;;0.58061;68.84412
31162;BME280;17796;49.296;-117.656;2023-03-01T00:17:34;95000;;;0.48915;68.48101
31162;BME280;17796;49.296;-117.656;2023-03-01T00:32:37;95000;;;0.34275;70.85327
31162;BME280;17796;49.296;-117.656;2023-03-01T00:47:43;95000;;;0.20398;69.90054
31162;BME280;17796;49.296;-117.656;2023-03-01T01:02:47;95100;;;0.20747;69.28195
31162;BME280;17796;49.296;-117.656;2023-03-01T01:17:50;95100;;;0.21731;70.05489
31162;BME280;17796;49.296;-117.656;2023-03-01T01:32:54;95100;;;0.07695;70.14257
31162;BME280;17796;49.296;-117.656;2023-03-01T01:47:59;95100;;;-0.54293;74.28427
31162;BME280;17796;49.296;-117.656;2023-03-01T02:03:08;95200;;;-0.04118;71.67082
31162;BME280;17796;49.296;-117.656;2023-03-01T02:18:16;95200;;;0.02995;70.37974
31162;BME280;17796;49.296;-117.656;2023-03-01T02:33:22;95200;;;0.02964;70.52201
31162;BME280;17796;49.296;-117.656;2023-03-01T02:48:27;95200;;;-0.07071;69.89032
31162;BME280;17796;49.296;-117.656;2023-03-01T03:03:41;95200;;;-0.41463;72.82073
31162;BME280;17796;49.296;-117.656;2023-03-01T03:18:45;95200;;;-1.10406;73.10078
31162;BME280;17796;49.296;-117.656;2023-03-01T03:33:49;95300;;;-0.8932;71.47588
31162;BME280;17796;49.296;-117.656;2023-03-01T03:48:53;95300;;;-1.58484;73.16327
31162;BME280;17796;49.296;-117.656;2023-03-01T04:03:56;95300;;;-1.85603;76.60624
31162;BME280;17796;49.296;-117.656;2023-03-01T04:19:00;95300;;;-2.15263;78.35512
31162;BME280;17796;49.296;-117.656;2023-03-01T04:34:04;95300;;;-2.71628;81.49887
31162;BME280;17796;49.296;-117.656;2023-03-01T04:49:07;95300;;;-2.45176;81.02248
31162;BME280;17796;49.296;-117.656;2023-03-01T05:04:11;95400;;;-0.76744;73.24407
31162;BME280;17796;49.296;-117.656;2023-03-01T05:19:14;95400;;;-0.85572;72.28688
31162;BME280;17796;49.296;-117.656;2023-03-01T05:34:19;95400;;;-0.50704;71.16298
31162;BME280;17796;49.296;-117.656;2023-03-01T05:49:25;95400;;;-0.90939;72.67536
31162;BME280;17796;49.296;-117.656;2023-03-01T06:04:29;95400;;;-0.72425;71.43499
31162;BME280;17796;49.296;-117.656;2023-03-01T06:19:33;95400;;;-1.32412;74.30832
31162;BME280;17796;49.296;-117.656;2023-03-01T06:34:36;95500;;;-1.21838;72.6439
31162;BME280;17796;49.296;-117.656;2023-03-01T06:49:40;95500;;;-2.16057;76.75155
31162;BME280;17796;49.296;-117.656;2023-03-01T07:04:44;95500;;;-1.32952;72.95073
31162;BME280;17796;49.296;-117.656;2023-03-01T07:19:48;95500;;;-1.94495;75.41774
31162;BME280;17796;49.296;-117.656;2023-03-01T07:34:51;95500;;;-2.20344;76.08449
31162;BME280;17796;49.296;-117.656;2023-03-01T07:49:55;95500;;;-0.86811;71.3578
31162;BME280;17796;49.296;-117.656;2023-03-01T08:04:59;95600;;;-1.0742;72.99424
31162;BME280;17796;49.296;-117.656;2023-03-01T08:20:03;95600;;;-1.07992;72.47008
31162;BME280;17796;49.296;-117.656;2023-03-01T08:35:07;95600;;;-2.32506;78.08298
31162;BME280;17796;49.296;-117.656;2023-03-01T08:50:11;95600;;;-2.52543;79.76185
31162;BME280;17796;49.296;-117.656;2023-03-01T09:05:15;95600;;;-1.21044;72.99902
31162;BME280;17796;49.296;-117.656;2023-03-01T09:20:19;95600;;;-0.71155;69.57304
31162;BME280;17796;49.296;-117.656;2023-03-01T09:35:22;95600;;;-0.94464;70.55996
31162;BME280;17796;49.296;-117.656;2023-03-01T09:50:27;95600;;;-2.34919;76.54904
31162;BME280;17796;49.296;-117.656;2023-03-01T10:05:38;95600;;;-2.17613;75.32599
31162;BME280;17796;49.296;-117.656;2023-03-01T10:20:51;95700;;;-1.27744;70.44083
31162;BME280;17796;49.296;-117.656;2023-03-01T10:35:57;95700;;;-2.59022;74.79938
31162;BME280;17796;49.296;-117.656;2023-03-01T10:51:05;95700;;;-2.00242;72.07147
31162;BME280;17796;49.296;-117.656;2023-03-01T11:06:20;95700;;;-3.07734;77.1366
31162;BME280;17796;49.296;-117.656;2023-03-01T11:21:24;95700;;;-2.76455;74.17003
31162;BME280;17796;49.296;-117.656;2023-03-01T11:36:31;95800;;;-2.05164;69.92193
31162;BME280;17796;49.296;-117.656;2023-03-01T11:51:41;95800;;;-2.41747;70.18711
31162;BME280;17796;49.296;-117.656;2023-03-01T12:06:51;95800;;;-3.62734;78.3453
31162;BME280;17796;49.296;-117.656;2023-03-01T12:22:21;95800;;;-3.80866;77.52103
31162;BME280;17796;49.296;-117.656;2023-03-01T12:37:35;95900;;;-4.07667;77.73834
31162;BME280;17796;49.296;-117.656;2023-03-01T12:52:50;95800;;;-2.74391;71.88454
31162;BME280;17796;49.296;-117.656;2023-03-01T13:07:59;95900;;;-3.56669;76.24465
31162;BME280;17796;49.296;-117.656;2023-03-01T13:23:11;95900;;;-2.69501;71.37814
31162;BME280;17796;49.296;-117.656;2023-03-01T13:38:59;95900;;;-2.87697;69.99846
31162;BME280;17796;49.296;-117.656;2023-03-01T13:54:09;95900;;;-2.34094;67.45975
31162;BME280;17796;49.296;-117.656;2023-03-01T14:09:17;95900;;;-3.05225;70.97888
31162;BME280;17796;49.296;-117.656;2023-03-01T14:24:23;95900;;;-2.52099;68.2143
31162;BME280;17796;49.296;-117.656;2023-03-01T14:39:26;96000;;;-2.96302;69.54595
31162;BME280;17796;49.296;-117.656;2023-03-01T14:54:32;96000;;;-3.12307;71.59768
31162;BME280;17796;49.296;-117.656;2023-03-01T15:09:42;96000;;;-3.41648;71.24228
31162;BME280;17796;49.296;-117.656;2023-03-01T15:24:47;96000;;;-3.84137;72.4541
31162;BME280;17796;49.296;-117.656;2023-03-01T15:39:53;96000;;;-3.80389;72.38683
31162;BME280;17796;49.296;-117.656;2023-03-01T15:54:58;96000;;;-3.47618;71.33505
31162;BME280;17796;49.296;-117.656;2023-03-01T16:10:05;96000;;;-2.87157;69.06915
31162;BME280;17796;49.296;-117.656;2023-03-01T16:25:09;96000;;;-2.68231;67.18995
31162;BME280;17796;49.296;-117.656;2023-03-01T16:40:19;96000;;;-3.32281;70.0718
31162;BME280;17796;49.296;-117.656;2023-03-01T16:55:34;96000;;;-1.55086;63.4544
31162;BME280;17796;49.296;-117.656;2023-03-01T17:10:38;96000;;;-1.77664;65.17635
31162;BME280;17796;49.296;-117.656;2023-03-01T17:25:42;96000;;;-1.32317;65.41436
31162;BME280;17796;49.296;-117.656;2023-03-01T17:40:46;96000;;;-0.7106;60.90019
31162;BME280;17796;49.296;-117.656;2023-03-01T17:55:57;96000;;;-1.63819;64.301
31162;BME280;17796;49.296;-117.656;2023-03-01T18:11:02;96000;;;-1.07071;61.87052
31162;BME280;17796;49.296;-117.656;2023-03-01T18:26:07;96000;;;-1.41018;63.94967
31162;BME280;17796;49.296;-117.656;2023-03-01T18:41:12;96000;;;-0.2549;61.64981
31162;BME280;17796;49.296;-117.656;2023-03-01T18:56:16;96000;;;1.50727;56.82491
31162;BME280;17796;49.296;-117.656;2023-03-01T19:11:20;96000;;;2.46347;54.71852
31162;BME280;17796;49.296;-117.656;2023-03-01T19:26:24;96000;;;1.54061;57.45548
31162;BME280;17796;49.296;-117.656;2023-03-01T19:41:29;96000;;;1.95662;56.23313
31162;BME280;17796;49.296;-117.656;2023-03-01T19:56:33;96000;;;1.55014;54.69243
31162;BME280;17796;49.296;-117.656;2023-03-01T20:11:36;96000;;;0.9963;55.59548
31162;BME280;17796;49.296;-117.656;2023-03-01T20:26:41;96000;;;3.47271;53.82781
31162;BME280;17796;49.296;-117.656;2023-03-01T20:41:44;96000;;;1.61556;57.21086
31162;BME280;17796;49.296;-117.656;2023-03-01T20:56:48;96000;;;1.51743;57.8458
31162;BME280;17796;49.296;-117.656;2023-03-01T21:11:52;96000;;;2.09953;57.94557
31162;BME280;17796;49.296;-117.656;2023-03-01T21:26:56;96000;;;2.49078;56.68232
31162;BME280;17796;49.296;-117.656;2023-03-01T21:42:00;96000;;;3.09099;55.76268
31162;BME280;17796;49.296;-117.656;2023-03-01T21:57:05;96000;;;3.26947;54.48506
31162;BME280;17796;49.296;-117.656;2023-03-01T22:12:09;96000;;;2.9665;55.08207
31162;BME280;17796;49.296;-117.656;2023-03-01T22:27:14;96000;;;2.72102;55.45924
31162;BME280;17796;49.296;-117.656;2023-03-01T22:42:17;96000;;;1.83118;59.77466
31162;BME280;17796;49.296;-117.656;2023-03-01T22:57:21;96000;;;2.41869;58.0493
31162;BME280;17796;49.296;-117.656;2023-03-01T23:12:25;96000;;;3.17134;55.69965
31162;BME280;17796;49.296;-117.656;2023-03-01T23:27:28;96000;;;3.00778;57.06522
31162;BME280;17796;49.296;-117.656;2023-03-01T23:42:32;96000;;;2.96332;55.92328
31162;BME280;17796;49.296;-117.656;2023-03-01T23:57:36;96000;;;2.4587;57.27219
